createdAt,value
2023-01-05T00:00:03.853Z,95441.41
2023-01-05T00:01:05.746Z,95505.41
2023-01-05T00:02:07.860Z,95484.63
2023-01-05T00:03:05.545Z,95543.72
2023-01-05T00:04:05.714Z,95493.31
2023-01-05T00:05:06.060Z,95556.38
2023-01-05T00:06:06.236Z,95462.81
2023-01-05T00:07:02.998Z,95541.00
2023-01-05T00:07:59.817Z,95566.72
2023-01-05T00:08:58.091Z,95518.09
2023-01-05T00:09:54.921Z,95520.13
2023-01-05T00:11:13.357Z,95571.69
2023-01-05T00:12:32.550Z,95519.50
2023-01-05T00:13:47.812Z,95571.97
2023-01-05T00:15:02.909Z,95545.94
2023-01-05T00:16:19.055Z,95504.56
2023-01-05T00:17:40.107Z,95411.63
2023-01-05T00:18:55.665Z,95535.75
2023-01-05T00:20:13.338Z,95545.88
2023-01-05T00:21:36.604Z,95557.91
2023-01-05T00:22:49.625Z,95443.84
2023-01-05T00:23:46.433Z,95421.69
2023-01-05T00:24:43.335Z,95559.34
2023-01-05T00:25:41.762Z,95470.69
2023-01-05T00:26:38.577Z,95536.56
2023-01-05T00:27:35.876Z,95570.72
2023-01-05T00:28:32.656Z,95576.94
2023-01-05T00:29:29.474Z,95542.63
2023-01-05T00:30:30.426Z,95552.00
2023-01-05T00:31:30.082Z,95493.47
2023-01-05T00:32:28.581Z,95542.69
2023-01-05T00:33:43.725Z,95419.31
2023-01-05T00:34:40.753Z,95543.81
2023-01-05T00:35:38.968Z,95422.72
2023-01-05T00:36:35.826Z,95523.34
2023-01-05T00:37:34.284Z,95558.19
2023-01-05T00:38:31.124Z,95309.47
2023-01-05T00:39:27.975Z,95545.69
2023-01-05T00:40:24.814Z,95571.28
2023-01-05T00:41:21.768Z,95541.31
2023-01-05T00:42:18.663Z,95409.50
2023-01-05T00:43:15.474Z,95541.84
2023-01-05T00:44:12.252Z,95440.16
2023-01-05T00:45:12.384Z,95535.50
2023-01-05T00:46:09.234Z,95462.19
2023-01-05T00:47:06.207Z,95543.47
2023-01-05T00:48:03.147Z,95560.22
2023-01-05T00:48:59.989Z,95531.25
2023-01-05T00:49:56.816Z,95540.94
2023-01-05T00:50:53.594Z,95358.66
2023-01-05T00:51:50.595Z,95454.66
2023-01-05T00:52:47.997Z,95437.38
2023-01-05T00:53:44.792Z,95534.53
2023-01-05T00:54:41.579Z,95488.16
2023-01-05T00:55:38.405Z,95437.28
2023-01-05T00:56:35.267Z,95557.69
2023-01-05T00:57:32.096Z,95543.25
2023-01-05T00:58:28.883Z,95434.09
2023-01-05T00:59:27.981Z,95444.03
2023-01-05T01:00:24.817Z,95464.63
2023-01-05T01:01:22.185Z,95442.31
2023-01-05T01:02:19.518Z,95402.56
2023-01-05T01:03:16.825Z,95326.63
2023-01-05T01:04:14.224Z,95499.75
2023-01-05T01:05:12.334Z,95429.38
2023-01-05T01:06:09.474Z,95430.19
2023-01-05T01:07:06.737Z,95345.13
2023-01-05T01:08:03.764Z,95407.28
2023-01-05T01:09:00.772Z,95481.03
2023-01-05T01:09:57.728Z,95399.66
2023-01-05T01:10:54.446Z,95517.91
2023-01-05T01:12:46.967Z,95536.25
2023-01-05T01:13:46.607Z,95467.06
2023-01-05T01:14:47.165Z,95569.91
2023-01-05T01:15:44.004Z,95521.09
2023-01-05T01:16:42.341Z,95559.53
2023-01-05T01:17:39.202Z,95544.69
2023-01-05T01:18:36.040Z,95487.88
2023-01-05T01:19:33.604Z,95503.06
2023-01-05T01:20:30.529Z,95538.09
2023-01-05T01:21:27.694Z,95546.75
2023-01-05T01:22:24.455Z,95520.88
2023-01-05T01:23:21.216Z,95318.00
2023-01-05T01:24:22.857Z,95523.72
2023-01-05T01:25:19.624Z,95515.50
2023-01-05T01:26:16.429Z,94992.28
2023-01-05T01:27:13.355Z,95499.09
2023-01-05T01:28:10.252Z,95504.34
2023-01-05T01:29:07.085Z,95452.41
2023-01-05T01:30:04.221Z,95508.22
2023-01-05T01:31:02.003Z,95348.94
2023-01-05T01:31:59.820Z,95506.47
2023-01-05T01:32:56.757Z,95336.47
2023-01-05T01:33:53.744Z,95427.41
2023-01-05T01:34:50.959Z,95301.19
2023-01-05T01:35:47.789Z,95425.72
2023-01-05T01:36:45.406Z,95492.41
2023-01-05T01:37:42.259Z,95495.13
2023-01-05T01:38:39.099Z,95494.19
2023-01-05T01:39:35.972Z,95399.09
2023-01-05T01:40:44.502Z,95495.66
2023-01-05T01:41:41.428Z,95522.03
2023-01-05T01:42:38.204Z,95419.38
2023-01-05T01:43:43.673Z,95472.19
2023-01-05T01:45:01.842Z,95466.31
2023-01-05T01:45:58.704Z,95350.13
2023-01-05T01:46:56.338Z,95197.78
2023-01-05T01:47:58.799Z,95471.47
2023-01-05T01:49:08.866Z,95439.50
2023-01-05T01:50:20.487Z,95257.75
2023-01-05T01:51:24.565Z,95511.19
2023-01-05T01:52:24.287Z,95275.63
2023-01-05T01:53:31.454Z,95220.78
2023-01-05T01:54:28.495Z,95458.22
2023-01-05T01:55:27.799Z,95471.44
2023-01-05T01:56:30.673Z,95435.34
2023-01-05T01:57:29.325Z,95508.91
2023-01-05T01:58:31.151Z,95350.50
2023-01-05T01:59:28.435Z,95472.00
2023-01-05T02:00:25.314Z,95427.13
2023-01-05T02:01:22.665Z,95348.69
2023-01-05T02:02:23.033Z,95400.97
2023-01-05T02:03:20.486Z,95463.06
2023-01-05T02:04:19.760Z,95344.88
2023-01-05T02:05:20.009Z,95107.94
2023-01-05T02:06:17.545Z,95383.50
2023-01-05T02:07:15.967Z,95399.34
2023-01-05T02:08:16.021Z,95320.50
2023-01-05T02:09:12.960Z,95289.16
2023-01-05T02:10:10.141Z,95439.72
2023-01-05T02:11:21.863Z,95407.50
2023-01-05T02:12:47.688Z,95409.13
2023-01-05T02:13:53.406Z,95430.84
2023-01-05T02:15:07.872Z,95430.03
2023-01-05T02:16:17.771Z,95426.47
2023-01-05T02:17:36.276Z,95386.91
2023-01-05T02:19:09.024Z,95397.44
2023-01-05T02:20:35.582Z,95389.88
2023-01-05T02:21:56.351Z,95433.28
2023-01-05T02:23:25.657Z,95429.66
2023-01-05T02:25:07.102Z,95423.81
2023-01-05T02:26:12.885Z,95424.50
2023-01-05T02:27:40.855Z,95389.66
2023-01-05T02:28:52.387Z,95426.84
2023-01-05T02:29:52.106Z,95420.44
2023-01-05T02:31:01.134Z,95427.91
2023-01-05T02:32:16.310Z,95429.31
2023-01-05T02:33:41.004Z,95444.78
2023-01-05T02:35:00.273Z,95470.69
2023-01-05T02:36:06.160Z,95429.59
2023-01-05T02:37:35.103Z,95427.19
2023-01-05T02:38:35.105Z,95426.72
2023-01-05T02:39:49.207Z,95425.09
2023-01-05T02:40:53.252Z,95163.63
2023-01-05T02:41:59.676Z,95422.59
2023-01-05T02:42:58.934Z,95444.31
2023-01-05T02:43:57.626Z,95291.16
2023-01-05T02:44:54.875Z,95230.31
2023-01-05T02:45:51.835Z,95279.06
2023-01-05T02:47:03.359Z,95239.53
2023-01-05T02:48:00.208Z,95237.44
2023-01-05T02:49:00.412Z,95361.81
2023-01-05T02:50:05.254Z,95408.50
2023-01-05T02:51:10.596Z,95431.72
2023-01-05T02:52:11.014Z,95413.56
2023-01-05T02:53:22.743Z,95415.88
2023-01-05T02:54:27.391Z,95336.81
2023-01-05T02:55:34.519Z,95365.69
2023-01-05T02:56:40.803Z,95391.03
2023-01-05T02:57:50.721Z,95425.53
2023-01-05T02:58:56.580Z,95412.72
2023-01-05T02:59:55.618Z,95367.84
2023-01-05T03:00:59.312Z,95428.84
2023-01-05T03:02:06.324Z,95429.09
2023-01-05T03:03:15.348Z,95391.03
2023-01-05T03:04:33.062Z,95411.09
2023-01-05T03:05:36.089Z,95407.53
2023-01-05T03:06:57.466Z,95409.50
2023-01-05T03:08:11.188Z,95340.06
2023-01-05T03:09:08.105Z,95321.75
2023-01-05T03:10:26.183Z,95259.78
2023-01-05T03:11:52.826Z,95383.13
2023-01-05T03:13:14.051Z,95397.50
2023-01-05T03:14:19.407Z,95194.56
2023-01-05T03:15:37.744Z,95375.69
2023-01-05T03:16:37.893Z,95301.66
2023-01-05T03:17:44.720Z,95357.81
2023-01-05T03:19:00.332Z,95181.72
2023-01-05T03:19:59.776Z,95374.69
2023-01-05T03:20:57.289Z,95167.91
2023-01-05T03:22:15.041Z,95361.94
2023-01-05T03:23:32.578Z,95352.84
2023-01-05T03:24:49.435Z,95392.53
2023-01-05T03:26:08.127Z,95333.41
2023-01-05T03:27:26.023Z,95301.22
2023-01-05T03:29:06.664Z,95342.69
2023-01-05T03:30:22.367Z,95312.50
2023-01-05T03:31:46.890Z,95361.28
2023-01-05T03:33:09.569Z,95363.88
2023-01-05T03:34:37.181Z,95085.28
2023-01-05T03:35:41.839Z,95237.81
2023-01-05T03:36:49.340Z,95291.31
2023-01-05T03:38:24.576Z,95291.88
2023-01-05T03:39:26.689Z,95328.50
2023-01-05T03:40:31.006Z,95299.25
2023-01-05T03:41:28.435Z,95290.91
2023-01-05T03:42:25.750Z,94991.69
2023-01-05T03:43:23.665Z,95328.72
2023-01-05T03:44:20.567Z,95349.47
2023-01-05T03:45:19.982Z,95322.13
2023-01-05T03:46:22.354Z,95345.97
2023-01-05T03:47:24.520Z,95294.00
2023-01-05T03:48:22.512Z,95377.72
2023-01-05T03:49:19.478Z,95356.50
2023-01-05T03:50:16.503Z,95312.78
2023-01-05T03:51:16.389Z,95345.31
2023-01-05T03:52:13.273Z,95355.13
2023-01-05T03:53:10.093Z,95304.44
2023-01-05T03:54:06.920Z,95372.34
2023-01-05T03:55:03.857Z,95343.81
2023-01-05T03:56:00.783Z,95396.31
2023-01-05T03:56:57.673Z,95350.09
2023-01-05T03:57:55.117Z,95086.94
2023-01-05T03:58:51.886Z,95277.25
2023-01-05T03:59:48.829Z,95359.66
2023-01-05T04:00:45.653Z,95383.34
2023-01-05T04:01:42.594Z,95346.09
2023-01-05T04:02:57.932Z,95322.41
2023-01-05T04:03:54.888Z,95312.81
2023-01-05T04:04:51.895Z,95311.09
2023-01-05T04:05:48.797Z,95322.94
2023-01-05T04:06:45.655Z,95343.69
2023-01-05T04:07:42.500Z,95334.97
2023-01-05T04:08:41.923Z,95304.84
2023-01-05T04:09:41.785Z,95107.41
2023-01-05T04:10:38.687Z,95345.69
2023-01-05T04:11:35.570Z,95165.97
2023-01-05T04:12:32.357Z,95359.06
2023-01-05T04:13:29.221Z,95333.38
2023-01-05T04:14:26.153Z,95062.31
2023-01-05T04:15:23.396Z,95260.88
2023-01-05T04:16:20.771Z,95338.78
2023-01-05T04:17:17.603Z,95195.91
2023-01-05T04:18:14.897Z,95347.03
2023-01-05T04:19:11.803Z,95360.22
2023-01-05T04:20:09.146Z,95236.56
2023-01-05T04:21:06.478Z,95331.41
2023-01-05T04:22:03.372Z,95364.34
2023-01-05T04:23:00.247Z,95334.66
2023-01-05T04:23:57.087Z,95350.75
2023-01-05T04:24:53.847Z,95341.66
2023-01-05T04:25:50.619Z,95347.13
2023-01-05T04:26:47.423Z,95265.09
2023-01-05T04:27:44.201Z,95353.53
2023-01-05T04:28:41.055Z,95268.50
2023-01-05T04:29:37.876Z,95294.16
2023-01-05T04:30:34.670Z,95364.94
2023-01-05T04:31:32.098Z,95205.44
2023-01-05T04:32:28.894Z,95316.28
2023-01-05T04:33:26.179Z,95292.94
2023-01-05T04:34:23.080Z,95345.88
2023-01-05T04:35:19.916Z,95289.84
2023-01-05T04:36:16.728Z,95305.38
2023-01-05T04:37:13.670Z,95216.25
2023-01-05T04:38:11.309Z,95324.75
2023-01-05T04:39:08.376Z,95347.25
2023-01-05T04:40:05.914Z,95360.84
2023-01-05T04:41:03.359Z,95350.38
2023-01-05T04:42:00.283Z,95344.84
2023-01-05T04:42:57.129Z,95350.66
2023-01-05T04:43:53.947Z,95339.72
2023-01-05T04:44:50.798Z,95244.28
2023-01-05T04:45:48.504Z,95342.47
2023-01-05T04:46:45.382Z,95344.81
2023-01-05T04:47:42.490Z,95111.69
2023-01-05T04:48:39.363Z,95377.00
2023-01-05T04:49:36.243Z,95359.53
2023-01-05T04:50:33.280Z,95348.63
2023-01-05T04:51:30.087Z,95349.09
2023-01-05T04:52:26.883Z,95341.91
2023-01-05T04:53:24.173Z,95355.47
2023-01-05T04:54:21.065Z,95364.16
2023-01-05T04:55:17.864Z,95338.38
2023-01-05T04:56:14.783Z,95311.34
2023-01-05T04:57:11.559Z,95408.34
2023-01-05T04:58:11.714Z,95283.81
2023-01-05T04:59:10.006Z,95350.44
2023-01-05T05:00:08.610Z,95354.53
2023-01-05T05:01:08.701Z,95303.34
2023-01-05T05:02:05.776Z,95103.38
2023-01-05T05:03:02.773Z,95322.63
2023-01-05T05:03:59.760Z,95346.59
2023-01-05T05:04:56.553Z,95278.72
2023-01-05T05:05:53.309Z,95360.59
2023-01-05T05:06:50.129Z,95260.59
2023-01-05T05:07:46.968Z,95367.19
2023-01-05T05:08:43.887Z,95378.25
2023-01-05T05:09:40.667Z,95338.38
2023-01-05T05:10:37.612Z,95322.22
2023-01-05T05:11:34.411Z,95287.38
2023-01-05T05:12:31.396Z,95150.19
2023-01-05T05:13:28.299Z,95260.94
2023-01-05T05:14:25.155Z,95378.63
2023-01-05T05:15:21.912Z,95244.53
2023-01-05T05:16:18.772Z,95379.53
2023-01-05T05:17:16.679Z,94944.28
2023-01-05T05:18:13.569Z,95374.22
2023-01-05T05:19:11.947Z,95229.03
2023-01-05T05:20:09.857Z,95372.03
2023-01-05T05:21:06.659Z,95369.88
2023-01-05T05:22:03.935Z,95350.94
2023-01-05T05:23:00.694Z,95379.97
2023-01-05T05:23:57.565Z,95338.50
2023-01-05T05:24:54.647Z,95344.19
2023-01-05T05:25:52.364Z,95361.22
2023-01-05T05:26:49.262Z,95292.78
2023-01-05T05:27:46.213Z,95364.16
2023-01-05T05:28:43.105Z,95201.94
2023-01-05T05:29:39.933Z,95371.41
2023-01-05T05:30:39.570Z,95384.28
2023-01-05T05:31:36.922Z,95137.06
2023-01-05T05:32:36.089Z,95351.78
2023-01-05T05:33:38.090Z,95352.66
2023-01-05T05:34:34.950Z,95343.91
2023-01-05T05:35:31.776Z,95332.97
2023-01-05T05:36:28.572Z,95218.00
2023-01-05T05:37:25.487Z,95301.47
2023-01-05T05:38:22.332Z,95214.19
2023-01-05T05:39:19.204Z,95307.47
2023-01-05T05:40:16.174Z,95340.84
2023-01-05T05:41:12.985Z,95291.84
2023-01-05T05:42:09.900Z,95251.44
2023-01-05T05:43:06.695Z,95211.44
2023-01-05T05:44:03.547Z,95312.16
2023-01-05T05:45:00.370Z,95339.03
2023-01-05T05:45:57.199Z,95346.97
2023-01-05T05:46:54.069Z,95361.75
2023-01-05T05:47:50.949Z,95242.47
2023-01-05T05:48:47.765Z,95306.91
2023-01-05T05:49:44.642Z,95306.59
2023-01-05T05:50:41.435Z,94728.31
2023-01-05T05:51:38.335Z,95335.78
2023-01-05T05:52:35.280Z,95322.44
2023-01-05T05:53:32.171Z,95279.47
2023-01-05T05:54:29.009Z,95067.41
2023-01-05T05:55:25.798Z,95328.59
2023-01-05T05:56:22.797Z,95204.56
2023-01-05T05:57:19.681Z,95307.38
2023-01-05T05:58:20.062Z,95258.59
2023-01-05T05:59:16.869Z,95301.25
2023-01-05T06:00:14.367Z,95280.88
2023-01-05T06:01:12.088Z,95273.34
2023-01-05T06:02:08.939Z,95297.97
2023-01-05T06:03:06.108Z,95287.81
2023-01-05T06:04:03.058Z,95192.41
2023-01-05T06:04:59.908Z,95265.13
2023-01-05T06:05:56.750Z,95129.22
2023-01-05T06:06:53.620Z,95331.78
2023-01-05T06:07:50.392Z,95226.41
2023-01-05T06:08:47.260Z,95193.00
2023-01-05T06:09:44.024Z,95336.03
2023-01-05T06:10:41.022Z,95289.59
2023-01-05T06:11:38.013Z,95207.22
2023-01-05T06:12:35.080Z,95299.28
2023-01-05T06:13:31.973Z,95186.06
2023-01-05T06:14:28.762Z,95237.28
2023-01-05T06:15:25.660Z,95298.69
2023-01-05T06:16:22.468Z,95098.03
2023-01-05T06:17:19.329Z,95182.91
2023-01-05T06:18:16.665Z,95257.63
2023-01-05T06:19:13.603Z,95290.19
2023-01-05T06:20:10.628Z,95226.09
2023-01-05T06:21:07.479Z,95255.94
2023-01-05T06:22:04.282Z,95288.03
2023-01-05T06:23:01.091Z,95189.63
2023-01-05T06:23:57.931Z,95302.22
2023-01-05T06:24:55.172Z,95208.44
2023-01-05T06:25:52.053Z,95298.53
2023-01-05T06:26:48.942Z,95302.75
2023-01-05T06:27:45.713Z,95325.16
2023-01-05T06:28:42.600Z,95306.75
2023-01-05T06:29:39.467Z,95280.53
2023-01-05T06:30:36.266Z,95251.75
2023-01-05T06:31:33.142Z,95259.22
2023-01-05T06:32:30.004Z,95311.88
2023-01-05T06:33:26.784Z,95290.63
2023-01-05T06:34:23.712Z,95300.63
2023-01-05T06:35:20.660Z,95194.19
2023-01-05T06:36:17.477Z,95289.00
2023-01-05T06:37:14.312Z,95151.88
2023-01-05T06:38:11.207Z,95290.78
2023-01-05T06:39:08.053Z,95235.03
2023-01-05T06:40:07.456Z,95112.84
2023-01-05T06:41:04.315Z,95305.84
2023-01-05T06:42:01.173Z,95292.06
2023-01-05T06:42:58.324Z,95269.38
2023-01-05T06:43:55.157Z,95162.47
2023-01-05T06:44:52.150Z,95296.97
2023-01-05T06:45:49.032Z,95066.03
2023-01-05T06:46:45.781Z,95327.50
2023-01-05T06:47:43.378Z,95342.47
2023-01-05T06:48:40.219Z,95249.44
2023-01-05T06:49:37.119Z,95195.66
2023-01-05T06:50:34.442Z,95217.25
2023-01-05T06:51:31.342Z,95224.66
2023-01-05T06:52:28.143Z,95185.31
2023-01-05T06:53:24.901Z,95244.47
2023-01-05T06:54:21.882Z,95178.16
2023-01-05T06:55:18.863Z,95291.41
2023-01-05T06:56:15.732Z,95208.97
2023-01-05T06:57:12.655Z,95224.38
2023-01-05T06:58:09.466Z,94793.47
2023-01-05T06:59:06.336Z,95233.75
2023-01-05T07:00:09.351Z,95302.94
2023-01-05T07:01:06.316Z,95287.09
2023-01-05T07:02:03.693Z,95290.16
2023-01-05T07:03:00.517Z,95292.47
2023-01-05T07:03:57.487Z,95287.31
2023-01-05T07:04:54.318Z,95193.63
2023-01-05T07:05:52.488Z,95196.91
2023-01-05T07:06:49.325Z,95216.91
2023-01-05T07:07:46.282Z,95279.44
2023-01-05T07:08:43.503Z,95281.47
2023-01-05T07:09:40.965Z,95282.38
2023-01-05T07:10:37.799Z,95194.69
2023-01-05T07:11:34.760Z,95146.81
2023-01-05T07:12:31.628Z,95263.25
2023-01-05T07:13:28.395Z,95273.97
2023-01-05T07:14:25.263Z,95278.44
2023-01-05T07:15:22.097Z,95286.59
2023-01-05T07:16:19.428Z,95299.84
2023-01-05T07:17:16.257Z,95164.38
2023-01-05T07:18:13.140Z,95263.34
2023-01-05T07:19:10.923Z,95266.22
2023-01-05T07:20:08.083Z,95293.69
2023-01-05T07:21:05.115Z,95231.06
2023-01-05T07:22:01.987Z,95289.31
2023-01-05T07:22:58.816Z,94999.44
2023-01-05T07:23:55.686Z,95288.50
2023-01-05T07:24:52.484Z,95192.84
2023-01-05T07:25:49.265Z,95294.38
2023-01-05T07:26:46.050Z,95013.19
2023-01-05T07:27:42.960Z,95110.75
2023-01-05T07:28:39.867Z,95187.34
2023-01-05T07:29:36.851Z,95114.00
2023-01-05T07:30:33.612Z,95105.59
2023-01-05T07:31:30.448Z,95261.44
2023-01-05T07:32:27.314Z,95259.06
2023-01-05T07:33:24.156Z,94676.84
2023-01-05T07:34:22.604Z,95261.81
2023-01-05T07:35:19.425Z,95280.06
2023-01-05T07:36:16.260Z,95269.09
2023-01-05T07:37:13.756Z,95269.75
2023-01-05T07:38:10.641Z,95264.59
2023-01-05T07:39:07.475Z,95244.00
2023-01-05T07:40:04.770Z,95166.59
2023-01-05T07:41:02.751Z,95073.63
2023-01-05T07:41:59.835Z,95214.25
2023-01-05T07:42:56.711Z,95242.94
2023-01-05T07:43:53.436Z,95241.16
2023-01-05T07:44:50.321Z,95239.66
2023-01-05T07:45:48.144Z,95220.22
2023-01-05T07:46:45.306Z,95256.63
2023-01-05T07:47:42.116Z,95259.66
2023-01-05T07:48:41.668Z,95243.09
2023-01-05T07:49:38.816Z,95277.97
2023-01-05T07:50:35.896Z,95196.72
2023-01-05T07:51:32.864Z,95265.50
2023-01-05T07:52:30.749Z,95218.38
2023-01-05T07:53:27.966Z,95281.31
2023-01-05T07:54:24.962Z,95170.94
2023-01-05T07:55:24.118Z,95160.19
2023-01-05T07:56:24.040Z,95062.75
2023-01-05T07:57:20.791Z,95115.63
2023-01-05T07:58:19.422Z,95256.50
2023-01-05T07:59:16.261Z,95229.41
2023-01-05T08:00:15.092Z,95273.03
2023-01-05T08:01:14.392Z,95150.63
2023-01-05T08:02:11.517Z,95230.00
2023-01-05T08:03:08.413Z,95117.59
2023-01-05T08:04:05.344Z,95215.00
2023-01-05T08:05:02.196Z,95148.44
2023-01-05T08:06:03.202Z,95238.28
2023-01-05T08:07:01.846Z,95109.13
2023-01-05T08:07:58.665Z,95171.38
2023-01-05T08:08:56.348Z,95224.34
2023-01-05T08:10:12.006Z,95241.16
2023-01-05T08:11:17.229Z,95055.97
2023-01-05T08:12:14.013Z,95261.19
2023-01-05T08:13:30.558Z,95227.66
2023-01-05T08:14:27.307Z,95204.72
2023-01-05T08:15:24.166Z,95226.44
2023-01-05T08:16:21.230Z,95192.06
2023-01-05T08:17:18.140Z,95018.69
2023-01-05T08:18:14.979Z,95243.84
2023-01-05T08:19:12.012Z,95247.47
2023-01-05T08:20:09.349Z,95240.41
2023-01-05T08:21:08.634Z,95244.06
2023-01-05T08:22:05.778Z,95068.19
2023-01-05T08:23:02.683Z,95204.22
2023-01-05T08:23:59.873Z,95241.06
2023-01-05T08:24:56.759Z,95189.06
2023-01-05T08:25:55.147Z,95242.47
2023-01-05T08:26:52.060Z,95236.41
2023-01-05T08:27:48.940Z,95232.16
2023-01-05T08:28:46.559Z,95233.97
2023-01-05T08:29:43.425Z,95238.03
2023-01-05T08:30:40.308Z,95225.88
2023-01-05T08:31:39.754Z,95211.09
2023-01-05T08:33:17.204Z,95184.63
2023-01-05T08:34:14.591Z,95136.28
2023-01-05T08:35:14.573Z,95223.69
2023-01-05T08:36:17.663Z,95222.84
2023-01-05T08:37:14.450Z,95228.88
2023-01-05T08:38:11.443Z,95204.63
2023-01-05T08:39:11.268Z,95163.19
2023-01-05T08:40:09.311Z,95236.59
2023-01-05T08:41:16.585Z,95283.13
2023-01-05T08:42:13.415Z,95103.16
2023-01-05T08:43:10.244Z,95217.94
2023-01-05T08:44:11.717Z,95219.16
2023-01-05T08:46:35.907Z,95096.88
2023-01-05T08:47:32.795Z,95203.00
2023-01-05T08:48:29.731Z,95103.78
2023-01-05T08:49:26.699Z,95209.47
2023-01-05T08:50:23.593Z,95239.44
2023-01-05T08:51:20.805Z,95110.44
2023-01-05T08:52:17.619Z,95134.47
2023-01-05T08:53:14.526Z,95204.22
2023-01-05T08:54:11.399Z,95221.59
2023-01-05T08:55:08.522Z,95015.13
2023-01-05T08:56:05.680Z,95238.59
2023-01-05T08:57:02.741Z,95205.81
2023-01-05T08:57:59.525Z,95193.63
2023-01-05T08:58:57.205Z,95187.34
2023-01-05T08:59:54.193Z,95186.75
2023-01-05T09:00:53.907Z,95188.78
2023-01-05T09:01:50.835Z,95123.75
2023-01-05T09:02:51.045Z,94973.28
2023-01-05T09:03:48.744Z,95174.72
2023-01-05T09:04:53.760Z,95176.06
2023-01-05T09:05:54.633Z,95127.19
2023-01-05T09:06:57.596Z,95178.91
2023-01-05T09:08:00.517Z,95214.41
2023-01-05T09:09:05.778Z,95166.44
2023-01-05T09:10:02.651Z,95161.34
2023-01-05T09:11:11.143Z,95050.38
2023-01-05T09:12:10.585Z,95080.38
2023-01-05T09:13:07.426Z,95158.94
2023-01-05T09:14:04.314Z,95008.69
2023-01-05T09:15:01.114Z,95167.16
2023-01-05T09:15:57.895Z,95107.38
2023-01-05T09:17:07.088Z,95150.66
2023-01-05T09:18:06.720Z,95167.63
2023-01-05T09:19:04.523Z,94985.38
2023-01-05T09:20:03.620Z,95096.94
2023-01-05T09:21:06.616Z,95100.44
2023-01-05T09:22:04.092Z,95036.72
2023-01-05T09:23:00.890Z,95124.69
2023-01-05T09:23:57.986Z,95044.66
2023-01-05T09:24:54.896Z,95140.94
2023-01-05T09:25:51.741Z,95143.00
2023-01-05T09:26:48.691Z,95072.41
2023-01-05T09:28:08.586Z,95121.84
2023-01-05T09:29:05.536Z,95006.22
2023-01-05T09:30:03.950Z,95100.38
2023-01-05T09:31:13.547Z,95084.56
2023-01-05T09:32:11.616Z,95136.94
2023-01-05T09:33:08.423Z,95112.19
2023-01-05T09:34:05.291Z,95066.72
2023-01-05T09:35:02.086Z,94969.69
2023-01-05T09:35:59.052Z,95116.63
2023-01-05T09:36:56.107Z,94940.28
2023-01-05T09:37:52.917Z,95082.09
2023-01-05T09:38:50.980Z,94965.16
2023-01-05T09:39:48.146Z,94986.88
2023-01-05T09:40:44.989Z,95054.13
2023-01-05T09:41:54.976Z,95110.13
2023-01-05T09:42:53.855Z,95103.53
2023-01-05T09:43:57.303Z,95088.41
2023-01-05T09:45:05.924Z,95077.09
2023-01-05T09:46:10.376Z,95062.09
2023-01-05T09:47:26.547Z,95078.50
2023-01-05T09:48:26.182Z,95022.06
2023-01-05T09:49:26.198Z,95017.84
2023-01-05T09:50:27.379Z,95087.06
2023-01-05T09:51:24.271Z,95093.59
2023-01-05T09:52:22.863Z,94977.09
2023-01-05T09:53:30.227Z,95080.09
2023-01-05T09:54:30.109Z,95068.31
2023-01-05T09:55:31.422Z,95015.22
2023-01-05T09:58:12.992Z,95030.59
2023-01-05T09:59:19.487Z,94998.63
2023-01-05T10:00:23.159Z,95048.91
2023-01-05T10:01:22.889Z,94882.06
2023-01-05T10:02:31.953Z,95008.16
2023-01-05T10:04:02.372Z,94969.72
2023-01-05T10:04:49.272Z,95073.66
2023-01-05T10:05:48.157Z,95062.53
2023-01-05T10:06:51.144Z,95072.72
2023-01-05T10:07:52.093Z,95027.50
2023-01-05T10:08:52.114Z,94879.63
2023-01-05T10:09:49.357Z,95053.38
2023-01-05T10:11:19.556Z,95057.25
2023-01-05T10:12:50.260Z,95082.88
2023-01-05T10:13:58.517Z,94869.06
2023-01-05T10:15:21.762Z,95040.34
2023-01-05T10:16:18.643Z,94970.53
2023-01-05T10:18:40.280Z,95057.22
2023-01-05T10:19:40.206Z,95063.63
2023-01-05T10:21:08.765Z,94949.53
2023-01-05T10:22:27.454Z,95042.34
2023-01-05T10:23:45.918Z,95036.91
2023-01-05T10:24:42.647Z,95035.59
2023-01-05T10:25:57.232Z,95028.00
2023-01-05T10:27:33.585Z,95030.75
2023-01-05T10:29:08.322Z,95025.16
2023-01-05T10:30:25.103Z,95028.00
2023-01-05T10:31:44.123Z,94869.28
2023-01-05T10:32:52.045Z,94974.72
2023-01-05T10:33:56.810Z,94931.53
2023-01-05T10:37:17.540Z,95002.00
2023-01-05T10:38:30.257Z,95014.66
2023-01-05T10:40:04.802Z,95002.09
2023-01-05T10:41:12.739Z,95000.13
2023-01-05T10:42:27.715Z,94935.66
2023-01-05T10:43:45.866Z,94993.03
2023-01-05T10:44:48.384Z,94999.00
2023-01-05T10:46:11.206Z,94893.50
2023-01-05T10:47:03.111Z,94889.50
2023-01-05T10:48:11.623Z,94895.41
2023-01-05T10:49:33.743Z,94934.31
2023-01-05T10:50:47.928Z,94936.56
2023-01-05T10:51:56.306Z,94998.81
2023-01-05T10:53:00.604Z,94955.16
2023-01-05T10:53:57.531Z,95004.28
2023-01-05T10:55:00.145Z,95000.81
2023-01-05T10:56:23.797Z,95004.50
2023-01-05T10:57:35.712Z,94983.69
2023-01-05T11:00:07.987Z,94878.88
2023-01-05T11:01:24.191Z,94962.69
2023-01-05T11:02:21.422Z,95011.84
2023-01-05T11:03:46.744Z,94989.19
2023-01-05T11:04:48.582Z,94997.59
2023-01-05T11:05:48.347Z,94927.03
2023-01-05T11:06:46.860Z,94990.81
2023-01-05T11:07:50.253Z,94975.88
2023-01-05T11:08:47.184Z,94876.38
2023-01-05T11:09:51.775Z,94917.34
2023-01-05T11:11:07.740Z,94910.75
2023-01-05T11:12:05.620Z,94961.06
2023-01-05T11:13:36.309Z,94962.22
2023-01-05T11:14:47.324Z,94933.84
2023-01-05T11:15:55.100Z,94883.88
2023-01-05T11:17:00.912Z,94961.50
2023-01-05T11:18:03.760Z,94978.72
2023-01-05T11:19:08.070Z,94929.34
2023-01-05T11:20:06.434Z,94914.19
2023-01-05T11:21:17.564Z,94835.53
2023-01-05T11:22:30.923Z,94960.03
2023-01-05T11:23:40.279Z,94945.09
2023-01-05T11:24:37.194Z,94984.41
2023-01-05T11:25:36.894Z,94892.94
2023-01-05T11:26:38.117Z,94871.22
2023-01-05T11:27:37.481Z,94967.06
2023-01-05T11:28:35.741Z,94968.06
2023-01-05T11:29:32.734Z,94950.50
2023-01-05T11:30:29.750Z,94905.09
2023-01-05T11:31:38.088Z,94901.31
2023-01-05T11:32:35.080Z,94969.84
2023-01-05T11:33:39.854Z,94951.31
2023-01-05T11:34:48.331Z,94960.53
2023-01-05T11:35:45.784Z,94916.22
2023-01-05T11:36:51.868Z,94943.16
2023-01-05T11:37:49.157Z,94950.16
2023-01-05T11:38:57.476Z,94913.03
2023-01-05T11:40:01.202Z,94965.34
2023-01-05T11:41:00.722Z,94968.66
2023-01-05T11:42:26.445Z,94938.75
2023-01-05T11:43:28.030Z,94791.13
2023-01-05T11:44:26.314Z,94973.72
2023-01-05T11:45:28.747Z,94971.06
2023-01-05T11:46:25.679Z,94957.47
2023-01-05T11:47:58.958Z,94950.19
2023-01-05T11:48:58.595Z,94958.22
2023-01-05T11:50:08.804Z,94811.38
2023-01-05T11:51:06.399Z,94928.78
2023-01-05T11:52:03.438Z,94928.31
2023-01-05T11:53:05.108Z,94945.13
2023-01-05T11:54:01.987Z,94945.59
2023-01-05T11:54:58.798Z,94911.56
2023-01-05T11:56:17.804Z,94899.94
2023-01-05T11:57:22.373Z,94943.50
2023-01-05T11:58:24.656Z,94906.38
2023-01-05T11:59:30.491Z,94939.31
2023-01-05T12:00:55.631Z,94963.34
2023-01-05T12:02:10.240Z,94891.41
2023-01-05T12:03:19.274Z,94937.63
2023-01-05T12:04:35.201Z,94936.78
2023-01-05T12:05:54.814Z,94950.16
2023-01-05T12:07:13.152Z,94934.47
2023-01-05T12:08:20.034Z,94921.72
2023-01-05T12:09:22.898Z,94939.09
2023-01-05T12:10:25.638Z,94931.31
2023-01-05T12:11:27.321Z,94861.56